sensor_id;sensor_type;location;lat;lon;timestamp;pressure;altitude;pressure_sealevel;temperature;humidity
68329;BME280;55182;56.864;60.554;2023-07-13T00:01:03;72973.13;;;-143.60;76.02
68329;BME280;55182;56.864;60.554;2023-07-13T00:03:28;72955.06;;;-143.60;75.70
68329;BME280;55182;56.864;60.554;2023-07-13T00:05:58;72947.03;;;-143.60;75.23
68329;BME280;55182;56.864;60.554;2023-07-13T00:08:23;72943.00;;;-143.60;74.82
68329;BME280;55182;56.864;60.554;2023-07-13T00:10:49;72936.97;;;-143.60;73.47
68329;BME280;55182;56.864;60.554;2023-07-13T00:13:17;72936.97;;;-143.60;73.44
68329;BME280;55182;56.864;60.554;2023-07-13T00:15:42;72941.00;;;-143.60;73.25
68329;BME280;55182;56.864;60.554;2023-07-13T00:18:07;72945.00;;;-143.60;73.78
68329;BME280;55182;56.864;60.554;2023-07-13T00:20:33;72951.03;;;-143.60;73.78
68329;BME280;55182;56.864;60.554;2023-07-13T00:22:58;72957.06;;;-143.60;73.82
68329;BME280;55182;56.864;60.554;2023-07-13T00:25:24;72965.09;;;-143.60;74.04
68329;BME280;55182;56.864;60.554;2023-07-13T00:27:49;72957.06;;;-143.60;74.10
68329;BME280;55182;56.864;60.554;2023-07-13T00:30:15;72949.03;;;-143.60;73.93
68329;BME280;55182;56.864;60.554;2023-07-13T00:32:41;72959.06;;;-143.60;73.70
68329;BME280;55182;56.864;60.554;2023-07-13T00:35:06;72951.03;;;-143.60;73.45
68329;BME280;55182;56.864;60.554;2023-07-13T00:37:32;72949.03;;;-143.60;72.39
68329;BME280;55182;56.864;60.554;2023-07-13T00:39:58;72955.06;;;-143.60;72.44
68329;BME280;55182;56.864;60.554;2023-07-13T00:42:23;72965.09;;;-143.60;72.04
68329;BME280;55182;56.864;60.554;2023-07-13T00:46:10;72975.13;;;-143.60;71.82
68329;BME280;55182;56.864;60.554;2023-07-13T00:47:53;72977.13;;;-143.60;71.16
68329;BME280;55182;56.864;60.554;2023-07-13T00:50:19;72977.13;;;-143.60;71.49
68329;BME280;55182;56.864;60.554;2023-07-13T00:52:47;72977.13;;;-143.60;71.06
68329;BME280;55182;56.864;60.554;2023-07-13T00:55:14;72963.09;;;-143.60;70.08
68329;BME280;55182;56.864;60.554;2023-07-13T00:57:41;72951.03;;;-143.60;69.57
68329;BME280;55182;56.864;60.554;2023-07-13T01:00:08;72945.00;;;-143.60;69.08
68329;BME280;55182;56.864;60.554;2023-07-13T01:02:35;72945.00;;;-143.60;68.81
68329;BME280;55182;56.864;60.554;2023-07-13T01:05:08;72936.97;;;-143.60;68.47
68329;BME280;55182;56.864;60.554;2023-07-13T01:07:34;72947.03;;;-143.60;68.56
68329;BME280;55182;56.864;60.554;2023-07-13T01:09:59;72947.03;;;-143.60;68.44
68329;BME280;55182;56.864;60.554;2023-07-13T01:12:24;72949.03;;;-143.60;68.07
68329;BME280;55182;56.864;60.554;2023-07-13T01:14:56;72951.03;;;-143.60;68.38
68329;BME280;55182;56.864;60.554;2023-07-13T01:17:21;72949.03;;;-143.60;68.87
68329;BME280;55182;56.864;60.554;2023-07-13T01:19:47;72963.09;;;-143.60;69.13
68329;BME280;55182;56.864;60.554;2023-07-13T01:22:13;72969.09;;;-143.60;68.99
68329;BME280;55182;56.864;60.554;2023-07-13T01:24:39;72971.13;;;-143.60;69.01
68329;BME280;55182;56.864;60.554;2023-07-13T01:27:06;72989.19;;;-143.60;69.10
68329;BME280;55182;56.864;60.554;2023-07-13T01:29:35;72997.22;;;-143.60;69.38
68329;BME280;55182;56.864;60.554;2023-07-13T01:32:00;72997.22;;;-143.60;69.08
68329;BME280;55182;56.864;60.554;2023-07-13T01:34:26;72995.22;;;-143.60;67.99
68329;BME280;55182;56.864;60.554;2023-07-13T01:36:52;72991.19;;;-143.60;66.84
68329;BME280;55182;56.864;60.554;2023-07-13T01:39:22;72993.19;;;-143.60;66.77
68329;BME280;55182;56.864;60.554;2023-07-13T01:41:48;72985.16;;;-143.60;66.23
68329;BME280;55182;56.864;60.554;2023-07-13T01:44:13;72981.16;;;-143.60;65.66
68329;BME280;55182;56.864;60.554;2023-07-13T01:46:39;72981.16;;;-143.60;65.25
68329;BME280;55182;56.864;60.554;2023-07-13T01:49:04;72981.16;;;-143.60;64.90
68329;BME280;55182;56.864;60.554;2023-07-13T01:51:30;72985.16;;;-143.60;64.43
68329;BME280;55182;56.864;60.554;2023-07-13T01:53:55;72989.19;;;-143.60;64.23
68329;BME280;55182;56.864;60.554;2023-07-13T01:56:22;72993.19;;;-143.60;64.49
68329;BME280;55182;56.864;60.554;2023-07-13T01:58:48;72985.16;;;-143.60;64.31
68329;BME280;55182;56.864;60.554;2023-07-13T02:01:13;72979.16;;;-143.60;64.20
68329;BME280;55182;56.864;60.554;2023-07-13T02:03:39;72965.09;;;-143.60;63.95
68329;BME280;55182;56.864;60.554;2023-07-13T02:06:05;72953.03;;;-143.60;63.69
68329;BME280;55182;56.864;60.554;2023-07-13T02:08:31;72936.97;;;-143.60;63.01
68329;BME280;55182;56.864;60.554;2023-07-13T02:10:57;72922.94;;;-143.60;62.06
68329;BME280;55182;56.864;60.554;2023-07-13T02:13:22;72924.94;;;-143.60;62.12
68329;BME280;55182;56.864;60.554;2023-07-13T02:15:50;72924.94;;;-143.60;62.10
68329;BME280;55182;56.864;60.554;2023-07-13T02:18:15;72928.94;;;-143.60;62.71
68329;BME280;55182;56.864;60.554;2023-07-13T02:20:41;72924.94;;;-143.60;62.28
68329;BME280;55182;56.864;60.554;2023-07-13T02:23:06;72924.94;;;-143.60;62.41
68329;BME280;55182;56.864;60.554;2023-07-13T02:25:31;72936.97;;;-143.60;61.12
68329;BME280;55182;56.864;60.554;2023-07-13T02:27:57;72936.97;;;-143.60;62.53
68329;BME280;55182;56.864;60.554;2023-07-13T02:30:22;72934.97;;;-143.60;62.78
68329;BME280;55182;56.864;60.554;2023-07-13T02:32:48;72947.03;;;-143.60;61.05
68329;BME280;55182;56.864;60.554;2023-07-13T02:35:13;72949.03;;;-143.60;61.18
68329;BME280;55182;56.864;60.554;2023-07-13T02:37:39;72945.00;;;-143.60;61.51
68329;BME280;55182;56.864;60.554;2023-07-13T02:40:04;72932.97;;;-143.60;62.18
68329;BME280;55182;56.864;60.554;2023-07-13T02:42:30;72936.97;;;-143.60;62.41
68329;BME280;55182;56.864;60.554;2023-07-13T02:44:55;72941.00;;;-143.60;62.68
68329;BME280;55182;56.864;60.554;2023-07-13T02:47:21;72941.00;;;-143.60;63.13
68329;BME280;55182;56.864;60.554;2023-07-13T02:49:46;72928.94;;;-143.60;63.27
68329;BME280;55182;56.864;60.554;2023-07-13T02:52:12;72928.94;;;-143.60;62.67
68329;BME280;55182;56.864;60.554;2023-07-13T02:54:37;72936.97;;;-143.60;62.59
68329;BME280;55182;56.864;60.554;2023-07-13T02:57:02;72951.03;;;-143.60;63.18
68329;BME280;55182;56.864;60.554;2023-07-13T02:59:28;72959.06;;;-143.60;63.99
68329;BME280;55182;56.864;60.554;2023-07-13T03:01:54;72965.09;;;-143.60;63.50
68329;BME280;55182;56.864;60.554;2023-07-13T03:04:19;72957.06;;;-143.60;63.14
68329;BME280;55182;56.864;60.554;2023-07-13T03:06:45;72941.00;;;-143.60;61.83
68329;BME280;55182;56.864;60.554;2023-07-13T03:09:10;72945.00;;;-143.60;61.94
68329;BME280;55182;56.864;60.554;2023-07-13T03:11:39;72932.97;;;-143.60;61.33
68329;BME280;55182;56.864;60.554;2023-07-13T03:14:16;72928.94;;;-143.60;60.80
68329;BME280;55182;56.864;60.554;2023-07-13T03:16:41;72941.00;;;-143.60;60.82
68329;BME280;55182;56.864;60.554;2023-07-13T03:19:07;72953.03;;;-143.60;60.88
68329;BME280;55182;56.864;60.554;2023-07-13T03:21:33;72957.06;;;-143.60;61.26
68329;BME280;55182;56.864;60.554;2023-07-13T03:23:58;72965.09;;;-143.60;60.82
68329;BME280;55182;56.864;60.554;2023-07-13T03:26:24;72965.09;;;-143.60;61.35
68329;BME280;55182;56.864;60.554;2023-07-13T03:28:50;72953.03;;;-143.60;61.05
68329;BME280;55182;56.864;60.554;2023-07-13T03:31:22;72951.03;;;-143.60;61.21
68329;BME280;55182;56.864;60.554;2023-07-13T03:33:48;72945.00;;;-143.60;60.94
68329;BME280;55182;56.864;60.554;2023-07-13T03:36:16;72939.00;;;-143.60;60.59
68329;BME280;55182;56.864;60.554;2023-07-13T03:38:42;72930.97;;;-143.60;60.25
68329;BME280;55182;56.864;60.554;2023-07-13T03:41:08;72924.94;;;-143.60;60.19
68329;BME280;55182;56.864;60.554;2023-07-13T03:43:34;72910.88;;;-143.60;60.53
68329;BME280;55182;56.864;60.554;2023-07-13T03:45:59;72884.78;;;-143.60;59.50
68329;BME280;55182;56.864;60.554;2023-07-13T03:48:24;72866.72;;;-143.60;59.18
68329;BME280;55182;56.864;60.554;2023-07-13T03:50:50;72850.66;;;-143.60;58.41
68329;BME280;55182;56.864;60.554;2023-07-13T03:53:15;72848.63;;;-143.60;58.09
68329;BME280;55182;56.864;60.554;2023-07-13T03:55:41;72860.69;;;-143.60;57.82
68329;BME280;55182;56.864;60.554;2023-07-13T03:58:24;72880.75;;;-143.60;58.17
68329;BME280;55182;56.864;60.554;2023-07-13T04:00:53;72908.88;;;-143.60;59.45
68329;BME280;55182;56.864;60.554;2023-07-13T04:03:18;72928.94;;;-143.60;60.48
68329;BME280;55182;56.864;60.554;2023-07-13T04:05:43;72922.94;;;-143.60;60.49
68329;BME280;55182;56.864;60.554;2023-07-13T04:08:11;72910.88;;;-143.60;59.95
68329;BME280;55182;56.864;60.554;2023-07-13T04:10:37;72904.84;;;-143.60;59.76
68329;BME280;55182;56.864;60.554;2023-07-13T04:13:02;72882.75;;;-143.60;59.57
68329;BME280;55182;56.864;60.554;2023-07-13T04:15:29;72844.63;;;-143.60;59.02
68329;BME280;55182;56.864;60.554;2023-07-13T04:17:54;72808.47;;;-143.60;58.12
68329;BME280;55182;56.864;60.554;2023-07-13T04:20:20;72796.44;;;-143.60;56.61
68329;BME280;55182;56.864;60.554;2023-07-13T04:22:45;72796.44;;;-143.60;56.82
68329;BME280;55182;56.864;60.554;2023-07-13T04:25:11;72802.47;;;-143.60;56.59
68329;BME280;55182;56.864;60.554;2023-07-13T04:27:36;72814.50;;;-143.60;56.45
68329;BME280;55182;56.864;60.554;2023-07-13T04:30:02;72802.47;;;-143.60;56.33
68329;BME280;55182;56.864;60.554;2023-07-13T04:32:27;72794.44;;;-143.60;56.52
68329;BME280;55182;56.864;60.554;2023-07-13T04:34:53;72808.47;;;-143.60;55.59
68329;BME280;55182;56.864;60.554;2023-07-13T04:37:18;72824.53;;;-143.60;55.29
68329;BME280;55182;56.864;60.554;2023-07-13T04:39:44;72838.59;;;-143.60;55.95
68329;BME280;55182;56.864;60.554;2023-07-13T04:42:09;72866.72;;;-143.60;56.36
68329;BME280;55182;56.864;60.554;2023-07-13T04:44:34;72886.78;;;-143.60;57.09
68329;BME280;55182;56.864;60.554;2023-07-13T04:47:00;72904.84;;;-143.60;57.05
68329;BME280;55182;56.864;60.554;2023-07-13T04:49:25;72918.91;;;-143.60;56.92
68329;BME280;55182;56.864;60.554;2023-07-13T04:51:51;72920.91;;;-143.60;57.21
68329;BME280;55182;56.864;60.554;2023-07-13T04:54:17;72912.88;;;-143.60;56.81
68329;BME280;55182;56.864;60.554;2023-07-13T04:56:42;72908.88;;;-143.60;57.43
68329;BME280;55182;56.864;60.554;2023-07-13T04:59:07;72912.88;;;-143.60;56.98
68329;BME280;55182;56.864;60.554;2023-07-13T05:01:33;72912.88;;;-143.60;57.45
68329;BME280;55182;56.864;60.554;2023-07-13T05:03:58;72896.81;;;-143.60;57.61
68329;BME280;55182;56.864;60.554;2023-07-13T05:06:24;72898.84;;;-143.60;56.57
68329;BME280;55182;56.864;60.554;2023-07-13T05:08:49;72884.78;;;-143.60;55.82
68329;BME280;55182;56.864;60.554;2023-07-13T05:11:14;72868.72;;;-143.60;56.02
68329;BME280;55182;56.864;60.554;2023-07-13T05:13:40;72834.56;;;-143.60;55.89
68329;BME280;55182;56.864;60.554;2023-07-13T05:16:06;72798.44;;;-143.60;55.73
68329;BME280;55182;56.864;60.554;2023-07-13T05:18:31;72758.28;;;-143.60;55.61
68329;BME280;55182;56.864;60.554;2023-07-13T05:20:57;72734.19;;;-143.60;53.92
68329;BME280;55182;56.864;60.554;2023-07-13T05:23:23;72726.16;;;-143.60;53.36
68329;BME280;55182;56.864;60.554;2023-07-13T05:25:48;72734.19;;;-143.60;53.65
68329;BME280;55182;56.864;60.554;2023-07-13T05:28:14;72742.22;;;-143.60;54.26
68329;BME280;55182;56.864;60.554;2023-07-13T05:30:39;72742.22;;;-143.60;54.45
68329;BME280;55182;56.864;60.554;2023-07-13T05:33:05;72752.25;;;-143.60;54.23
68329;BME280;55182;56.864;60.554;2023-07-13T05:35:30;72752.25;;;-143.60;54.68
68329;BME280;55182;56.864;60.554;2023-07-13T05:37:55;72762.28;;;-143.60;54.71
68329;BME280;55182;56.864;60.554;2023-07-13T05:40:21;72782.38;;;-143.60;55.04
68329;BME280;55182;56.864;60.554;2023-07-13T05:42:46;72778.38;;;-143.60;55.14
68329;BME280;55182;56.864;60.554;2023-07-13T05:45:12;72782.38;;;-143.60;55.61
68329;BME280;55182;56.864;60.554;2023-07-13T05:47:37;72774.34;;;-143.60;55.12
68329;BME280;55182;56.864;60.554;2023-07-13T05:50:03;72740.22;;;-143.60;54.49
68329;BME280;55182;56.864;60.554;2023-07-13T05:52:28;72748.25;;;-143.60;54.90
68329;BME280;55182;56.864;60.554;2023-07-13T05:54:54;72758.28;;;-143.60;54.51
68329;BME280;55182;56.864;60.554;2023-07-13T05:57:20;72764.31;;;-143.60;54.77
68329;BME280;55182;56.864;60.554;2023-07-13T05:59:45;72768.31;;;-143.60;54.66
68329;BME280;55182;56.864;60.554;2023-07-13T06:02:10;72756.28;;;-143.60;54.92
68329;BME280;55182;56.864;60.554;2023-07-13T06:04:36;72756.28;;;-143.60;55.17
68329;BME280;55182;56.864;60.554;2023-07-13T06:07:01;72760.28;;;-143.60;55.49
68329;BME280;55182;56.864;60.554;2023-07-13T06:09:27;72764.31;;;-143.60;56.19
68329;BME280;55182;56.864;60.554;2023-07-13T06:11:52;72760.28;;;-143.60;56.47
68329;BME280;55182;56.864;60.554;2023-07-13T06:14:18;72754.28;;;-143.60;55.89
68329;BME280;55182;56.864;60.554;2023-07-13T06:16:43;72736.19;;;-143.60;55.72
68329;BME280;55182;56.864;60.554;2023-07-13T06:19:08;72732.19;;;-143.60;55.53
68329;BME280;55182;56.864;60.554;2023-07-13T06:21:34;72726.16;;;-143.60;55.91
68329;BME280;55182;56.864;60.554;2023-07-13T06:23:59;72720.13;;;-143.60;56.47
68329;BME280;55182;56.864;60.554;2023-07-13T06:26:25;72730.19;;;-143.60;56.21
68329;BME280;55182;56.864;60.554;2023-07-13T06:28:50;72754.28;;;-143.60;56.04
68329;BME280;55182;56.864;60.554;2023-07-13T06:31:16;72772.34;;;-143.60;56.60
68329;BME280;55182;56.864;60.554;2023-07-13T06:33:41;72768.31;;;-143.60;56.78
68329;BME280;55182;56.864;60.554;2023-07-13T06:36:07;72740.22;;;-143.60;56.31
68329;BME280;55182;56.864;60.554;2023-07-13T06:38:33;72708.09;;;-143.60;55.04
68329;BME280;55182;56.864;60.554;2023-07-13T06:40:59;72688.00;;;-143.60;54.10
68329;BME280;55182;56.864;60.554;2023-07-13T06:43:24;72679.97;;;-143.60;53.93
68329;BME280;55182;56.864;60.554;2023-07-13T06:45:50;72661.91;;;-143.60;53.92
68329;BME280;55182;56.864;60.554;2023-07-13T06:48:16;72655.88;;;-143.60;53.14
68329;BME280;55182;56.864;60.554;2023-07-13T06:50:42;72649.88;;;-143.60;52.82
68329;BME280;55182;56.864;60.554;2023-07-13T06:53:07;72647.84;;;-143.60;51.94
68329;BME280;55182;56.864;60.554;2023-07-13T06:55:33;72631.78;;;-143.60;50.09
68329;BME280;55182;56.864;60.554;2023-07-13T06:57:58;72635.81;;;-143.60;50.99
68329;BME280;55182;56.864;60.554;2023-07-13T07:00:24;72649.88;;;-143.60;51.67
68329;BME280;55182;56.864;60.554;2023-07-13T07:02:49;72673.97;;;-143.60;51.98
68329;BME280;55182;56.864;60.554;2023-07-13T07:05:15;72684.00;;;-143.60;52.50
68329;BME280;55182;56.864;60.554;2023-07-13T07:07:40;72696.03;;;-143.60;52.45
68329;BME280;55182;56.864;60.554;2023-07-13T07:10:06;72712.09;;;-143.60;52.30
68329;BME280;55182;56.864;60.554;2023-07-13T07:12:31;72724.16;;;-143.60;52.74
68329;BME280;55182;56.864;60.554;2023-07-13T07:14:57;72690.03;;;-143.60;52.60
68329;BME280;55182;56.864;60.554;2023-07-13T07:17:22;72651.88;;;-143.60;52.10
68329;BME280;55182;56.864;60.554;2023-07-13T07:19:48;72643.84;;;-143.60;51.51
68329;BME280;55182;56.864;60.554;2023-07-13T07:22:13;72627.78;;;-143.60;51.19
68329;BME280;55182;56.864;60.554;2023-07-13T07:24:39;72611.72;;;-143.60;50.53
68329;BME280;55182;56.864;60.554;2023-07-13T07:27:04;72595.66;;;-143.60;50.46
68329;BME280;55182;56.864;60.554;2023-07-13T07:29:29;72619.75;;;-143.60;50.26
68329;BME280;55182;56.864;60.554;2023-07-13T07:31:55;72645.84;;;-143.60;50.93
68329;BME280;55182;56.864;60.554;2023-07-13T07:34:20;72651.88;;;-143.60;51.21
68329;BME280;55182;56.864;60.554;2023-07-13T07:36:46;72653.88;;;-143.60;51.04
68329;BME280;55182;56.864;60.554;2023-07-13T07:39:11;72667.94;;;-143.60;50.92
68329;BME280;55182;56.864;60.554;2023-07-13T07:41:37;72665.94;;;-143.60;50.63
68329;BME280;55182;56.864;60.554;2023-07-13T07:44:02;72655.88;;;-143.60;50.70
68329;BME280;55182;56.864;60.554;2023-07-13T07:46:28;72665.94;;;-143.60;50.90
68329;BME280;55182;56.864;60.554;2023-07-13T07:48:53;72653.88;;;-143.60;50.75
68329;BME280;55182;56.864;60.554;2023-07-13T07:51:19;72657.91;;;-143.60;50.77
68329;BME280;55182;56.864;60.554;2023-07-13T07:53:44;72684.00;;;-143.60;51.30
68329;BME280;55182;56.864;60.554;2023-07-13T07:56:09;72704.06;;;-143.60;51.59
68329;BME280;55182;56.864;60.554;2023-07-13T07:58:35;72720.13;;;-143.60;51.73
68329;BME280;55182;56.864;60.554;2023-07-13T08:01:04;72714.13;;;-143.60;51.55
68329;BME280;55182;56.864;60.554;2023-07-13T08:03:30;72684.00;;;-143.60;50.50
68329;BME280;55182;56.864;60.554;2023-07-13T08:05:56;72635.81;;;-143.60;50.07
68329;BME280;55182;56.864;60.554;2023-07-13T08:08:21;72623.75;;;-143.60;49.41
68329;BME280;55182;56.864;60.554;2023-07-13T08:10:47;72607.69;;;-143.60;49.21
68329;BME280;55182;56.864;60.554;2023-07-13T08:13:12;72583.59;;;-143.60;48.86
68329;BME280;55182;56.864;60.554;2023-07-13T08:15:38;72575.59;;;-143.60;48.25
68329;BME280;55182;56.864;60.554;2023-07-13T08:18:04;72587.63;;;-143.60;47.63
68329;BME280;55182;56.864;60.554;2023-07-13T08:20:29;72587.63;;;-143.60;47.82
68329;BME280;55182;56.864;60.554;2023-07-13T08:22:55;72603.69;;;-143.60;48.12
68329;BME280;55182;56.864;60.554;2023-07-13T08:25:20;72619.75;;;-143.60;47.88
68329;BME280;55182;56.864;60.554;2023-07-13T08:27:45;72619.75;;;-143.60;47.84
68329;BME280;55182;56.864;60.554;2023-07-13T08:30:11;72619.75;;;-143.60;48.07
68329;BME280;55182;56.864;60.554;2023-07-13T08:32:38;72635.81;;;-143.60;47.81
68329;BME280;55182;56.864;60.554;2023-07-13T08:35:04;72667.94;;;-143.60;48.84
68329;BME280;55182;56.864;60.554;2023-07-13T08:37:29;72663.91;;;-143.60;49.22
68329;BME280;55182;56.864;60.554;2023-07-13T08:39:55;72663.91;;;-143.60;49.38
68329;BME280;55182;56.864;60.554;2023-07-13T08:42:36;72649.88;;;-143.60;49.17
68329;BME280;55182;56.864;60.554;2023-07-13T08:45:38;72643.84;;;-143.60;49.05
68329;BME280;55182;56.864;60.554;2023-07-13T08:48:13;72647.84;;;-143.60;49.21
68329;BME280;55182;56.864;60.554;2023-07-13T08:50:44;72663.91;;;-143.60;48.98
68329;BME280;55182;56.864;60.554;2023-07-13T08:53:13;72675.97;;;-143.60;49.17
68329;BME280;55182;56.864;60.554;2023-07-13T08:55:40;72679.97;;;-143.60;49.29
68329;BME280;55182;56.864;60.554;2023-07-13T08:58:10;72663.91;;;-143.60;49.14
68329;BME280;55182;56.864;60.554;2023-07-13T09:00:56;72631.78;;;-143.60;48.48
68329;BME280;55182;56.864;60.554;2023-07-13T09:03:24;72563.53;;;-143.60;47.56
68329;BME280;55182;56.864;60.554;2023-07-13T09:05:56;72501.28;;;-143.60;47.29
68329;BME280;55182;56.864;60.554;2023-07-13T09:10:49;72463.16;;;-143.60;44.86
68329;BME280;55182;56.864;60.554;2023-07-13T09:15:45;72431.03;;;-143.60;44.98
68329;BME280;55182;56.864;60.554;2023-07-13T09:18:32;72416.97;;;-143.60;44.36
68329;BME280;55182;56.864;60.554;2023-07-13T09:21:00;72423.00;;;-143.60;44.24
68329;BME280;55182;56.864;60.554;2023-07-13T09:23:28;72455.13;;;-143.60;45.06
68329;BME280;55182;56.864;60.554;2023-07-13T09:26:04;72481.22;;;-143.60;44.76
68329;BME280;55182;56.864;60.554;2023-07-13T09:28:33;72507.31;;;-143.60;45.46
68329;BME280;55182;56.864;60.554;2023-07-13T09:31:02;72541.44;;;-143.60;46.27
68329;BME280;55182;56.864;60.554;2023-07-13T09:33:28;72557.50;;;-143.60;46.94
68329;BME280;55182;56.864;60.554;2023-07-13T09:35:54;72563.53;;;-143.60;46.77
68329;BME280;55182;56.864;60.554;2023-07-13T09:38:20;72583.59;;;-143.60;46.60
68329;BME280;55182;56.864;60.554;2023-07-13T09:43:13;72587.63;;;-143.60;46.99
68329;BME280;55182;56.864;60.554;2023-07-13T09:45:40;72591.63;;;-143.60;47.18
68329;BME280;55182;56.864;60.554;2023-07-13T09:48:07;72607.69;;;-143.60;47.22
68329;BME280;55182;56.864;60.554;2023-07-13T09:50:32;72617.75;;;-143.60;47.27
68329;BME280;55182;56.864;60.554;2023-07-13T09:52:58;72615.72;;;-143.60;47.20
68329;BME280;55182;56.864;60.554;2023-07-13T09:55:27;72609.72;;;-143.60;47.79
68329;BME280;55182;56.864;60.554;2023-07-13T09:57:54;72567.53;;;-143.60;47.28
68329;BME280;55182;56.864;60.554;2023-07-13T10:00:20;72527.41;;;-143.60;46.36
68329;BME280;55182;56.864;60.554;2023-07-13T10:02:46;72485.22;;;-143.60;45.69
68329;BME280;55182;56.864;60.554;2023-07-13T10:05:22;72445.09;;;-143.60;45.45
68329;BME280;55182;56.864;60.554;2023-07-13T10:07:48;72455.13;;;-143.60;44.86
68329;BME280;55182;56.864;60.554;2023-07-13T10:10:17;72489.25;;;-143.60;45.21
68329;BME280;55182;56.864;60.554;2023-07-13T10:12:44;72505.31;;;-143.60;45.31
68329;BME280;55182;56.864;60.554;2023-07-13T10:15:13;72543.47;;;-143.60;45.07
68329;BME280;55182;56.864;60.554;2023-07-13T10:17:39;72549.47;;;-143.60;45.65
68329;BME280;55182;56.864;60.554;2023-07-13T10:20:06;72527.41;;;-143.60;45.33
68329;BME280;55182;56.864;60.554;2023-07-13T10:22:50;72511.34;;;-143.60;44.88
68329;BME280;55182;56.864;60.554;2023-07-13T10:25:18;72503.31;;;-143.60;44.62
68329;BME280;55182;56.864;60.554;2023-07-13T10:27:44;72485.22;;;-143.60;44.72
68329;BME280;55182;56.864;60.554;2023-07-13T10:32:39;72441.06;;;-143.60;44.94
68329;BME280;55182;56.864;60.554;2023-07-13T10:35:05;72423.00;;;-143.60;44.10
68329;BME280;55182;56.864;60.554;2023-07-13T10:37:37;72410.94;;;-143.60;43.70
68329;BME280;55182;56.864;60.554;2023-07-13T10:40:04;72394.88;;;-143.60;44.59
68329;BME280;55182;56.864;60.554;2023-07-13T10:42:35;72394.88;;;-143.60;43.23
68329;BME280;55182;56.864;60.554;2023-07-13T10:45:05;72410.94;;;-143.60;42.65
68329;BME280;55182;56.864;60.554;2023-07-13T10:47:36;72431.03;;;-143.60;42.57
68329;BME280;55182;56.864;60.554;2023-07-13T10:50:02;72443.06;;;-143.60;42.43
68329;BME280;55182;56.864;60.554;2023-07-13T10:52:41;72463.16;;;-143.60;43.22
68329;BME280;55182;56.864;60.554;2023-07-13T10:55:29;72471.19;;;-143.60;43.69
68329;BME280;55182;56.864;60.554;2023-07-13T10:57:52;72455.13;;;-143.60;43.72
68329;BME280;55182;56.864;60.554;2023-07-13T11:00:18;72455.13;;;-143.60;42.07
68329;BME280;55182;56.864;60.554;2023-07-13T11:02:44;72469.16;;;-143.60;42.41
68329;BME280;55182;56.864;60.554;2023-07-13T11:07:55;72479.22;;;-143.60;43.20
68329;BME280;55182;56.864;60.554;2023-07-13T11:13:29;72475.19;;;-143.60;41.48
68329;BME280;55182;56.864;60.554;2023-07-13T11:15:50;72463.16;;;-143.60;41.85
68329;BME280;55182;56.864;60.554;2023-07-13T11:18:19;72449.09;;;-143.60;40.90
68329;BME280;55182;56.864;60.554;2023-07-13T11:20:46;72441.06;;;-143.60;41.43
68329;BME280;55182;56.864;60.554;2023-07-13T11:25:39;72451.09;;;-143.60;42.09
68329;BME280;55182;56.864;60.554;2023-07-13T11:35:37;72447.09;;;-143.60;41.95
68329;BME280;55182;56.864;60.554;2023-07-13T11:38:12;72402.91;;;-143.60;42.11
68329;BME280;55182;56.864;60.554;2023-07-13T11:40:39;72346.72;;;-143.60;41.36
68329;BME280;55182;56.864;60.554;2023-07-13T11:43:04;72342.69;;;-143.60;40.50
68329;BME280;55182;56.864;60.554;2023-07-13T11:45:31;72320.63;;;-143.60;40.20
68329;BME280;55182;56.864;60.554;2023-07-13T11:47:56;72348.72;;;-143.60;40.59
68329;BME280;55182;56.864;60.554;2023-07-13T11:50:23;72374.81;;;-143.60;40.84
68329;BME280;55182;56.864;60.554;2023-07-13T11:52:49;72390.88;;;-143.60;41.30
68329;BME280;55182;56.864;60.554;2023-07-13T11:55:16;72402.91;;;-143.60;41.72
68329;BME280;55182;56.864;60.554;2023-07-13T11:57:47;72334.66;;;-143.60;40.84
68329;BME280;55182;56.864;60.554;2023-07-13T12:00:15;72194.13;;;-143.60;39.38
68329;BME280;55182;56.864;60.554;2023-07-13T12:02:46;72158.00;;;-143.60;38.24
68329;BME280;55182;56.864;60.554;2023-07-13T12:05:13;72093.75;;;-143.60;37.96
68329;BME280;55182;56.864;60.554;2023-07-13T12:07:39;72029.53;;;-143.60;37.18
68329;BME280;55182;56.864;60.554;2023-07-13T12:12:40;72009.44;;;-143.60;36.82
68329;BME280;55182;56.864;60.554;2023-07-13T12:15:11;72079.72;;;-143.60;36.76
68329;BME280;55182;56.864;60.554;2023-07-13T12:17:37;72174.06;;;-143.60;37.76
68329;BME280;55182;56.864;60.554;2023-07-13T12:20:04;72268.41;;;-143.60;38.92
68329;BME280;55182;56.864;60.554;2023-07-13T12:22:37;72328.63;;;-143.60;39.87
68329;BME280;55182;56.864;60.554;2023-07-13T12:25:03;72356.75;;;-143.60;40.86
68329;BME280;55182;56.864;60.554;2023-07-13T12:27:28;72370.81;;;-143.60;41.36
68329;BME280;55182;56.864;60.554;2023-07-13T12:32:23;72370.81;;;-143.60;41.57
68329;BME280;55182;56.864;60.554;2023-07-13T12:34:56;72368.78;;;-143.60;41.44
68329;BME280;55182;56.864;60.554;2023-07-13T12:37:21;72376.81;;;-143.60;41.27
68329;BME280;55182;56.864;60.554;2023-07-13T12:39:47;72370.81;;;-143.60;41.36
68329;BME280;55182;56.864;60.554;2023-07-13T12:42:21;72370.81;;;-143.60;41.09
68329;BME280;55182;56.864;60.554;2023-07-13T12:44:47;72362.78;;;-143.60;41.04
68329;BME280;55182;56.864;60.554;2023-07-13T12:47:13;72300.53;;;-143.60;39.94
68329;BME280;55182;56.864;60.554;2023-07-13T12:49:43;72166.03;;;-143.60;38.41
68329;BME280;55182;56.864;60.554;2023-07-13T12:52:20;72007.44;;;-143.60;37.10
68329;BME280;55182;56.864;60.554;2023-07-13T12:54:52;71830.78;;;-143.60;34.96
68329;BME280;55182;56.864;60.554;2023-07-13T12:57:17;71708.34;;;-143.60;33.24
68329;BME280;55182;56.864;60.554;2023-07-13T12:59:43;71591.94;;;-143.60;32.29